AirNav   Everest Fuels
 
 1123 users online  

3MS3 Root Hog Airport
Flora, Mississippi, USA

GOING TO FLORA?


FAA INFORMATION EFFECTIVE 07 NOVEMBER 2019

Location

FAA Identifier: 3MS3
Lat/Long: 32-30-57.1000N 090-21-04.2000W
32-30.951667N 090-21.070000W
32.5158611,-90.3511667
(estimated)
Elevation: 220 ft. / 67 m (estimated)
Variation: 02E (1995)
From city: 2 miles SW of FLORA, MS
Time zone: UTC -6 (UTC -5 during Daylight Saving Time)
Zip code: 39071

Airport Operations

Airport use: Private use. Permission required prior to landing
Activation date: 10/1997
Control tower: no
ARTCC: MEMPHIS CENTER
FSS: GREENWOOD FLIGHT SERVICE STATION
Attendance: MON-SAT 0800-1800
Wind indicator: yes
Segmented circle: no

Airport Communications

WX ASOS at HKS (13 nm SE): 120.625 (601-354-4037)
WX AWOS-3PT at JVW (13 nm S): 118.675 ((601) 857-3887)
WX AWOS-3PT at MBO (13 nm E): 119.125 (601-605-8137)
WX ASOS at JAN (19 nm SE): PHONE 601-932-2822

Nearby radio navigation aids

VOR radial/distance  VOR name  Freq  Var
MHZr292/13.6MAGNOLIA VORTAC113.2001W

 
NDB name  Hdg/Dist  Freq  Var  ID
BRENZ324/7.726000WJH .--- ....
ALLEN299/13.336501WJA .--- .-
TALLULAH063/37.834402ETKH - -.- ....

Airport Services

Fuel available: 100

Runway Information

Runway 9/27

Dimensions: 3500 x 75 ft. / 1067 x 23 m
Surface: turf
RUNWAY 9  RUNWAY 27
Traffic pattern: leftleft
Obstructions: nonepline

Airport Ownership and Management from official FAA records

Ownership: Privately-owned
Owner: RUDY HOLCOMB
BOX 26
FLORA, MS 39071
Phone 601-879-8008
Manager: KARL HOLCOMB
BOX 26
FLORA, MS 39071
Phone 601-879-8008

Airport Operational Statistics

Aircraft based on the field: 4
Single engine airplanes: 4
    

Additional Remarks

FOR CD CTC JACKSON APCH AT 601-965-4625, WHEN APCH CLSD CTC MEMPHIS ARTCC AT 901-368-8453.

Instrument Procedures

There are no published instrument procedures at 3MS3.

Some nearby airports with instrument procedures:

KHKS - Hawkins Field Airport (13 nm SE)
KJVW - John Bell Williams Airport (13 nm S)
KMBO - Bruce Campbell Field Airport (13 nm E)
KJAN - Jackson-Medgar Wiley Evers International Airport (19 nm SE)
87I - Yazoo County Airport (23 nm N)
 
Loc | Ops | Rwys | IFR | FBO | Links
Com | Nav | Svcs | Stats | Notes
Area around 3MS3 (Root Hog Airport)
 
Road maps at: MapQuest Bing Google
 
Aerial photo
No photo
 
Sectional chart

 
Airport distance calculator
Flying to Root Hog Airport? Find the distance to fly.

From to 3MS3

Sunrise and sunset
Times for 13-Nov-2019
 Local
(UTC-6)
 Zulu
(UTC)
Morning civil twilight06:0412:04
Sunrise06:3012:30
Sunset17:0123:01
Evening civil twilight17:2723:27

Current date and time
Zulu (UTC)  13-Nov-2019 22:49:08
Local (UTC-6)  13-Nov-2019 16:49:08
 
METAR
KHKS 
13nm SE 
132153Z 00000KT 10SM CLR 08/M07 A3022 RMK AO2 SLP231 T00781072
KJVW 
13nm S 
132235Z AUTO 00000KT 10SM CLR 07/M02 A3021 RMK AO2
KMBO 
13nm E 
132155Z AUTO 00000KT 10SM CLR 06/M06 RMK AO2
KJAN 
18nm SE 
132154Z 00000KT 10SM SCT250 09/M06 A3022 RMK AO2 SLP234 T00891056
TAF
KHKS 
13nm SE 
131731Z 1318/1418 VRB03KT P6SM SKC FM132100 13004KT P6SM SKC
KJAN 
18nm SE 
131731Z 1318/1418 VRB03KT P6SM SKC FM132100 13004KT P6SM SKC
NOTAMs
Click for the latest NOTAMs
NOTAMs are issued by the DoD/FAA and will open in a separate window not controlled by AirNav.

 

 
 

Would you like to see your business listed on this page?

 If your business provides an interesting product or service to pilots, flight crews, aircraft, or users of the Root Hog Airport, you should consider listing it here.  To start the listing process, click on the button below
 
Add a business
 

Other Pages about Root Hog Airport

Update a link
 
Copyright © AirNav, LLC. All rights reserved. Privacy Policy  Contact